sensor_id;sensor_type;location;lat;lon;timestamp;P1;durP1;ratioP1;P2;durP2;ratioP2
6564;SDS011;3316;44.118;27.258;2023-05-10T00:00:27;22.90;;;15.60;;
6564;SDS011;3316;44.118;27.258;2023-05-10T00:02:52;32.43;;;18.93;;
6564;SDS011;3316;44.118;27.258;2023-05-10T00:05:18;42.07;;;23.83;;
6564;SDS011;3316;44.118;27.258;2023-05-10T00:07:43;17.33;;;11.67;;
6564;SDS011;3316;44.118;27.258;2023-05-10T00:10:12;15.03;;;10.30;;
6564;SDS011;3316;44.118;27.258;2023-05-10T00:12:37;18.63;;;9.67;;
6564;SDS011;3316;44.118;27.258;2023-05-10T00:15:03;18.47;;;10.73;;
6564;SDS011;3316;44.118;27.258;2023-05-10T00:17:29;15.20;;;11.43;;
6564;SDS011;3316;44.118;27.258;2023-05-10T00:19:54;17.47;;;11.20;;
6564;SDS011;3316;44.118;27.258;2023-05-10T00:22:20;20.93;;;12.33;;
6564;SDS011;3316;44.118;27.258;2023-05-10T00:24:45;16.07;;;11.70;;
6564;SDS011;3316;44.118;27.258;2023-05-10T00:27:11;17.20;;;13.47;;
6564;SDS011;3316;44.118;27.258;2023-05-10T00:29:36;29.13;;;17.87;;
6564;SDS011;3316;44.118;27.258;2023-05-10T00:32:02;21.23;;;12.30;;
6564;SDS011;3316;44.118;27.258;2023-05-10T00:34:27;17.93;;;12.63;;
6564;SDS011;3316;44.118;27.258;2023-05-10T00:36:53;23.07;;;14.20;;
6564;SDS011;3316;44.118;27.258;2023-05-10T00:39:18;14.67;;;10.83;;
6564;SDS011;3316;44.118;27.258;2023-05-10T00:41:44;12.83;;;10.07;;
6564;SDS011;3316;44.118;27.258;2023-05-10T00:44:10;17.70;;;11.90;;
6564;SDS011;3316;44.118;27.258;2023-05-10T00:46:35;17.93;;;13.67;;
6564;SDS011;3316;44.118;27.258;2023-05-10T00:49:01;16.97;;;12.73;;
6564;SDS011;3316;44.118;27.258;2023-05-10T00:51:27;16.07;;;12.40;;
6564;SDS011;3316;44.118;27.258;2023-05-10T00:53:52;13.43;;;10.23;;
6564;SDS011;3316;44.118;27.258;2023-05-10T00:56:18;14.30;;;10.60;;
6564;SDS011;3316;44.118;27.258;2023-05-10T00:58:47;15.27;;;11.10;;
6564;SDS011;3316;44.118;27.258;2023-05-10T01:01:13;16.27;;;11.57;;
6564;SDS011;3316;44.118;27.258;2023-05-10T01:03:39;16.90;;;12.23;;
6564;SDS011;3316;44.118;27.258;2023-05-10T01:06:05;17.60;;;12.10;;
6564;SDS011;3316;44.118;27.258;2023-05-10T01:08:30;16.43;;;11.80;;
6564;SDS011;3316;44.118;27.258;2023-05-10T01:10:56;18.27;;;11.87;;
6564;SDS011;3316;44.118;27.258;2023-05-10T01:13:35;19.97;;;13.87;;
6564;SDS011;3316;44.118;27.258;2023-05-10T01:16:02;21.77;;;14.93;;
6564;SDS011;3316;44.118;27.258;2023-05-10T01:18:35;18.33;;;14.23;;
6564;SDS011;3316;44.118;27.258;2023-05-10T01:21:06;17.90;;;11.70;;
6564;SDS011;3316;44.118;27.258;2023-05-10T01:26:43;17.90;;;12.17;;
6564;SDS011;3316;44.118;27.258;2023-05-10T01:40:32;20.23;;;13.70;;
6564;SDS011;3316;44.118;27.258;2023-05-10T01:43:07;19.53;;;14.30;;
6564;SDS011;3316;44.118;27.258;2023-05-10T01:48:10;17.47;;;12.80;;
6564;SDS011;3316;44.118;27.258;2023-05-10T01:50:37;21.03;;;14.23;;
6564;SDS011;3316;44.118;27.258;2023-05-10T01:53:07;21.23;;;14.57;;
6564;SDS011;3316;44.118;27.258;2023-05-10T01:55:39;21.07;;;13.70;;
6564;SDS011;3316;44.118;27.258;2023-05-10T01:58:11;15.57;;;10.83;;
6564;SDS011;3316;44.118;27.258;2023-05-10T02:00:42;37.67;;;18.80;;
6564;SDS011;3316;44.118;27.258;2023-05-10T02:03:09;36.37;;;16.87;;
6564;SDS011;3316;44.118;27.258;2023-05-10T02:05:36;75.93;;;25.07;;
6564;SDS011;3316;44.118;27.258;2023-05-10T02:08:05;90.20;;;29.27;;
6564;SDS011;3316;44.118;27.258;2023-05-10T02:10:32;106.73;;;35.10;;
6564;SDS011;3316;44.118;27.258;2023-05-10T02:13:00;95.43;;;32.60;;
6564;SDS011;3316;44.118;27.258;2023-05-10T02:15:27;119.17;;;40.83;;
6564;SDS011;3316;44.118;27.258;2023-05-10T02:17:55;54.60;;;23.33;;
6564;SDS011;3316;44.118;27.258;2023-05-10T02:20:22;29.43;;;14.20;;
6564;SDS011;3316;44.118;27.258;2023-05-10T02:22:49;29.30;;;14.50;;
6564;SDS011;3316;44.118;27.258;2023-05-10T02:25:17;19.40;;;12.63;;
6564;SDS011;3316;44.118;27.258;2023-05-10T02:27:44;17.53;;;11.73;;
6564;SDS011;3316;44.118;27.258;2023-05-10T02:30:10;21.67;;;11.93;;
6564;SDS011;3316;44.118;27.258;2023-05-10T02:32:36;16.10;;;10.63;;
6564;SDS011;3316;44.118;27.258;2023-05-10T02:35:03;15.97;;;12.10;;
6564;SDS011;3316;44.118;27.258;2023-05-10T02:37:29;18.00;;;12.40;;
6564;SDS011;3316;44.118;27.258;2023-05-10T02:39:55;18.07;;;12.07;;
6564;SDS011;3316;44.118;27.258;2023-05-10T02:42:26;19.73;;;11.77;;
6564;SDS011;3316;44.118;27.258;2023-05-10T02:44:53;20.27;;;13.10;;
6564;SDS011;3316;44.118;27.258;2023-05-10T02:47:24;20.20;;;11.87;;
6564;SDS011;3316;44.118;27.258;2023-05-10T02:49:50;18.77;;;12.20;;
6564;SDS011;3316;44.118;27.258;2023-05-10T02:52:16;19.47;;;11.97;;
6564;SDS011;3316;44.118;27.258;2023-05-10T02:54:48;18.30;;;12.30;;
6564;SDS011;3316;44.118;27.258;2023-05-10T02:57:16;16.83;;;11.67;;
6564;SDS011;3316;44.118;27.258;2023-05-10T02:59:47;19.70;;;13.93;;
6564;SDS011;3316;44.118;27.258;2023-05-10T03:02:12;16.93;;;12.20;;
6564;SDS011;3316;44.118;27.258;2023-05-10T03:04:38;18.33;;;12.73;;
6564;SDS011;3316;44.118;27.258;2023-05-10T03:07:04;18.50;;;12.90;;
6564;SDS011;3316;44.118;27.258;2023-05-10T03:09:30;18.50;;;11.90;;
6564;SDS011;3316;44.118;27.258;2023-05-10T03:12:00;18.13;;;11.67;;
6564;SDS011;3316;44.118;27.258;2023-05-10T03:20:06;16.83;;;11.20;;
6564;SDS011;3316;44.118;27.258;2023-05-10T03:23:20;19.27;;;10.33;;
6564;SDS011;3316;44.118;27.258;2023-05-10T03:25:48;15.20;;;10.20;;
6564;SDS011;3316;44.118;27.258;2023-05-10T03:28:18;17.07;;;10.90;;
6564;SDS011;3316;44.118;27.258;2023-05-10T03:30:45;13.33;;;9.30;;
6564;SDS011;3316;44.118;27.258;2023-05-10T03:33:11;16.77;;;9.90;;
6564;SDS011;3316;44.118;27.258;2023-05-10T03:35:38;12.43;;;9.93;;
6564;SDS011;3316;44.118;27.258;2023-05-10T03:38:04;13.50;;;9.70;;
6564;SDS011;3316;44.118;27.258;2023-05-10T03:40:29;15.27;;;11.20;;
6564;SDS011;3316;44.118;27.258;2023-05-10T03:42:56;20.27;;;11.47;;
6564;SDS011;3316;44.118;27.258;2023-05-10T03:45:22;14.27;;;10.10;;
6564;SDS011;3316;44.118;27.258;2023-05-10T03:47:48;15.87;;;9.67;;
6564;SDS011;3316;44.118;27.258;2023-05-10T03:50:13;15.77;;;11.13;;
6564;SDS011;3316;44.118;27.258;2023-05-10T03:52:39;22.53;;;13.37;;
6564;SDS011;3316;44.118;27.258;2023-05-10T03:55:05;19.37;;;13.60;;
6564;SDS011;3316;44.118;27.258;2023-05-10T03:57:31;17.27;;;12.67;;
6564;SDS011;3316;44.118;27.258;2023-05-10T03:59:56;20.77;;;14.70;;
6564;SDS011;3316;44.118;27.258;2023-05-10T04:02:22;19.07;;;13.77;;
6564;SDS011;3316;44.118;27.258;2023-05-10T04:04:47;23.20;;;15.90;;
6564;SDS011;3316;44.118;27.258;2023-05-10T04:07:13;23.27;;;16.73;;
6564;SDS011;3316;44.118;27.258;2023-05-10T04:09:39;22.77;;;15.83;;
6564;SDS011;3316;44.118;27.258;2023-05-10T04:12:04;24.50;;;13.80;;
6564;SDS011;3316;44.118;27.258;2023-05-10T04:14:30;22.03;;;14.13;;
6564;SDS011;3316;44.118;27.258;2023-05-10T04:16:56;19.80;;;13.30;;
6564;SDS011;3316;44.118;27.258;2023-05-10T04:19:21;21.23;;;14.43;;
6564;SDS011;3316;44.118;27.258;2023-05-10T04:21:46;24.20;;;16.13;;
6564;SDS011;3316;44.118;27.258;2023-05-10T04:24:12;18.37;;;14.60;;
6564;SDS011;3316;44.118;27.258;2023-05-10T04:26:37;18.70;;;12.37;;
6564;SDS011;3316;44.118;27.258;2023-05-10T04:29:03;23.30;;;15.20;;
6564;SDS011;3316;44.118;27.258;2023-05-10T04:31:28;21.30;;;15.30;;
6564;SDS011;3316;44.118;27.258;2023-05-10T04:33:53;21.40;;;13.70;;
6564;SDS011;3316;44.118;27.258;2023-05-10T04:36:19;24.30;;;14.03;;
6564;SDS011;3316;44.118;27.258;2023-05-10T04:38:44;19.13;;;13.47;;
6564;SDS011;3316;44.118;27.258;2023-05-10T04:41:10;24.03;;;15.50;;
6564;SDS011;3316;44.118;27.258;2023-05-10T04:43:36;20.50;;;14.23;;
6564;SDS011;3316;44.118;27.258;2023-05-10T04:46:02;21.20;;;14.00;;
6564;SDS011;3316;44.118;27.258;2023-05-10T04:48:28;24.10;;;15.93;;
6564;SDS011;3316;44.118;27.258;2023-05-10T04:50:54;23.50;;;17.00;;
6564;SDS011;3316;44.118;27.258;2023-05-10T04:53:19;30.57;;;17.53;;
6564;SDS011;3316;44.118;27.258;2023-05-10T04:55:45;40.47;;;21.33;;
6564;SDS011;3316;44.118;27.258;2023-05-10T04:58:11;32.43;;;20.17;;
6564;SDS011;3316;44.118;27.258;2023-05-10T05:00:37;30.80;;;18.33;;
6564;SDS011;3316;44.118;27.258;2023-05-10T05:03:03;31.27;;;18.23;;
6564;SDS011;3316;44.118;27.258;2023-05-10T05:05:28;45.90;;;26.97;;
6564;SDS011;3316;44.118;27.258;2023-05-10T05:07:53;32.70;;;20.50;;
6564;SDS011;3316;44.118;27.258;2023-05-10T05:10:19;33.73;;;19.53;;
6564;SDS011;3316;44.118;27.258;2023-05-10T05:12:44;30.00;;;18.40;;
6564;SDS011;3316;44.118;27.258;2023-05-10T05:15:10;40.30;;;23.77;;
6564;SDS011;3316;44.118;27.258;2023-05-10T05:17:35;23.23;;;16.87;;
6564;SDS011;3316;44.118;27.258;2023-05-10T05:20:01;24.10;;;17.23;;
6564;SDS011;3316;44.118;27.258;2023-05-10T05:22:27;27.33;;;16.50;;
6564;SDS011;3316;44.118;27.258;2023-05-10T05:24:56;26.33;;;18.63;;
6564;SDS011;3316;44.118;27.258;2023-05-10T05:27:23;32.60;;;18.07;;
6564;SDS011;3316;44.118;27.258;2023-05-10T05:29:54;32.43;;;19.63;;
6564;SDS011;3316;44.118;27.258;2023-05-10T05:32:22;25.53;;;17.53;;
6564;SDS011;3316;44.118;27.258;2023-05-10T05:34:48;42.03;;;26.17;;
6564;SDS011;3316;44.118;27.258;2023-05-10T05:37:14;26.63;;;16.83;;
6564;SDS011;3316;44.118;27.258;2023-05-10T05:39:40;21.70;;;16.77;;
6564;SDS011;3316;44.118;27.258;2023-05-10T05:42:07;23.83;;;16.37;;
6564;SDS011;3316;44.118;27.258;2023-05-10T05:44:33;24.33;;;17.63;;
6564;SDS011;3316;44.118;27.258;2023-05-10T05:46:58;26.90;;;16.97;;
6564;SDS011;3316;44.118;27.258;2023-05-10T05:49:24;22.63;;;16.40;;
6564;SDS011;3316;44.118;27.258;2023-05-10T05:51:49;23.63;;;18.03;;
6564;SDS011;3316;44.118;27.258;2023-05-10T05:54:15;29.30;;;18.47;;
6564;SDS011;3316;44.118;27.258;2023-05-10T05:56:41;26.63;;;18.53;;
6564;SDS011;3316;44.118;27.258;2023-05-10T05:59:06;23.80;;;16.97;;
6564;SDS011;3316;44.118;27.258;2023-05-10T06:01:32;18.87;;;14.60;;
6564;SDS011;3316;44.118;27.258;2023-05-10T06:03:57;20.47;;;15.30;;
6564;SDS011;3316;44.118;27.258;2023-05-10T06:06:22;20.60;;;14.00;;
6564;SDS011;3316;44.118;27.258;2023-05-10T06:08:48;19.23;;;12.37;;
6564;SDS011;3316;44.118;27.258;2023-05-10T06:11:13;18.57;;;13.27;;
6564;SDS011;3316;44.118;27.258;2023-05-10T06:13:38;21.47;;;12.93;;
6564;SDS011;3316;44.118;27.258;2023-05-10T06:16:04;16.97;;;11.30;;
6564;SDS011;3316;44.118;27.258;2023-05-10T06:18:30;15.43;;;11.07;;
6564;SDS011;3316;44.118;27.258;2023-05-10T06:20:55;16.00;;;11.67;;
6564;SDS011;3316;44.118;27.258;2023-05-10T06:23:21;15.93;;;11.33;;
6564;SDS011;3316;44.118;27.258;2023-05-10T06:25:47;15.03;;;10.37;;
6564;SDS011;3316;44.118;27.258;2023-05-10T06:28:12;12.33;;;9.20;;
6564;SDS011;3316;44.118;27.258;2023-05-10T06:30:38;12.90;;;10.00;;
6564;SDS011;3316;44.118;27.258;2023-05-10T06:33:03;17.23;;;10.00;;
6564;SDS011;3316;44.118;27.258;2023-05-10T06:35:29;15.37;;;10.67;;
6564;SDS011;3316;44.118;27.258;2023-05-10T06:37:54;13.07;;;8.53;;
6564;SDS011;3316;44.118;27.258;2023-05-10T06:40:20;13.40;;;9.50;;
6564;SDS011;3316;44.118;27.258;2023-05-10T06:42:46;13.23;;;9.10;;
6564;SDS011;3316;44.118;27.258;2023-05-10T06:45:12;13.50;;;7.73;;
6564;SDS011;3316;44.118;27.258;2023-05-10T06:47:39;11.23;;;7.63;;
6564;SDS011;3316;44.118;27.258;2023-05-10T06:50:05;9.30;;;6.90;;
6564;SDS011;3316;44.118;27.258;2023-05-10T06:52:31;9.10;;;7.10;;
6564;SDS011;3316;44.118;27.258;2023-05-10T06:54:57;9.47;;;6.20;;
6564;SDS011;3316;44.118;27.258;2023-05-10T06:57:23;13.83;;;7.37;;
6564;SDS011;3316;44.118;27.258;2023-05-10T06:59:49;9.40;;;7.20;;
6564;SDS011;3316;44.118;27.258;2023-05-10T07:02:14;9.30;;;5.50;;
6564;SDS011;3316;44.118;27.258;2023-05-10T07:04:40;10.03;;;6.00;;
6564;SDS011;3316;44.118;27.258;2023-05-10T07:07:05;9.60;;;5.90;;
6564;SDS011;3316;44.118;27.258;2023-05-10T07:09:31;13.63;;;6.90;;
6564;SDS011;3316;44.118;27.258;2023-05-10T07:11:56;10.37;;;5.97;;
6564;SDS011;3316;44.118;27.258;2023-05-10T07:14:22;9.30;;;5.80;;
6564;SDS011;3316;44.118;27.258;2023-05-10T07:16:48;10.77;;;5.10;;
6564;SDS011;3316;44.118;27.258;2023-05-10T07:19:13;7.53;;;5.53;;
6564;SDS011;3316;44.118;27.258;2023-05-10T07:21:39;8.30;;;5.23;;
6564;SDS011;3316;44.118;27.258;2023-05-10T07:24:07;5.97;;;3.87;;
6564;SDS011;3316;44.118;27.258;2023-05-10T07:26:33;5.40;;;4.40;;
6564;SDS011;3316;44.118;27.258;2023-05-10T07:28:58;8.30;;;4.43;;
6564;SDS011;3316;44.118;27.258;2023-05-10T07:31:24;10.67;;;4.60;;
6564;SDS011;3316;44.118;27.258;2023-05-10T07:33:49;5.63;;;3.37;;
6564;SDS011;3316;44.118;27.258;2023-05-10T07:36:14;7.23;;;4.93;;
6564;SDS011;3316;44.118;27.258;2023-05-10T07:38:40;6.37;;;5.13;;
6564;SDS011;3316;44.118;27.258;2023-05-10T07:41:05;10.07;;;6.33;;
6564;SDS011;3316;44.118;27.258;2023-05-10T07:43:31;10.27;;;6.50;;
6564;SDS011;3316;44.118;27.258;2023-05-10T07:45:56;7.47;;;5.37;;
6564;SDS011;3316;44.118;27.258;2023-05-10T07:48:22;7.27;;;4.00;;
6564;SDS011;3316;44.118;27.258;2023-05-10T07:50:48;3.87;;;3.30;;
6564;SDS011;3316;44.118;27.258;2023-05-10T07:53:13;6.33;;;3.50;;
6564;SDS011;3316;44.118;27.258;2023-05-10T07:55:39;6.20;;;3.97;;
6564;SDS011;3316;44.118;27.258;2023-05-10T07:58:04;8.83;;;4.80;;
6564;SDS011;3316;44.118;27.258;2023-05-10T08:00:30;6.90;;;4.23;;
6564;SDS011;3316;44.118;27.258;2023-05-10T08:02:55;8.00;;;4.53;;
6564;SDS011;3316;44.118;27.258;2023-05-10T08:05:21;12.10;;;4.70;;
6564;SDS011;3316;44.118;27.258;2023-05-10T08:07:47;6.13;;;4.30;;
6564;SDS011;3316;44.118;27.258;2023-05-10T08:10:15;7.40;;;4.70;;
6564;SDS011;3316;44.118;27.258;2023-05-10T08:12:41;7.37;;;4.70;;
6564;SDS011;3316;44.118;27.258;2023-05-10T08:15:07;8.80;;;4.63;;
6564;SDS011;3316;44.118;27.258;2023-05-10T08:17:33;9.63;;;5.50;;
6564;SDS011;3316;44.118;27.258;2023-05-10T08:19:59;7.97;;;5.30;;
6564;SDS011;3316;44.118;27.258;2023-05-10T08:22:24;15.03;;;6.20;;
6564;SDS011;3316;44.118;27.258;2023-05-10T08:24:50;7.67;;;5.03;;
6564;SDS011;3316;44.118;27.258;2023-05-10T08:27:15;7.13;;;4.63;;
6564;SDS011;3316;44.118;27.258;2023-05-10T08:29:40;10.20;;;5.03;;
6564;SDS011;3316;44.118;27.258;2023-05-10T08:32:06;7.17;;;5.10;;
6564;SDS011;3316;44.118;27.258;2023-05-10T08:34:31;8.27;;;4.63;;
6564;SDS011;3316;44.118;27.258;2023-05-10T08:36:57;9.50;;;5.27;;
6564;SDS011;3316;44.118;27.258;2023-05-10T08:39:22;7.97;;;4.27;;
6564;SDS011;3316;44.118;27.258;2023-05-10T08:41:48;10.07;;;4.93;;
6564;SDS011;3316;44.118;27.258;2023-05-10T08:44:16;6.18;;;4.40;;
6564;SDS011;3316;44.118;27.258;2023-05-10T08:46:43;4.82;;;4.25;;
6564;SDS011;3316;44.118;27.258;2023-05-10T08:49:13;9.18;;;4.60;;
6564;SDS011;3316;44.118;27.258;2023-05-10T08:51:43;7.67;;;4.60;;
6564;SDS011;3316;44.118;27.258;2023-05-10T08:54:13;6.40;;;3.90;;
6564;SDS011;3316;44.118;27.258;2023-05-10T08:56:39;9.43;;;4.43;;
6564;SDS011;3316;44.118;27.258;2023-05-10T08:59:04;6.23;;;4.50;;
6564;SDS011;3316;44.118;27.258;2023-05-10T09:01:30;10.30;;;4.77;;
6564;SDS011;3316;44.118;27.258;2023-05-10T09:03:57;11.60;;;5.20;;
6564;SDS011;3316;44.118;27.258;2023-05-10T09:06:23;8.25;;;5.38;;
6564;SDS011;3316;44.118;27.258;2023-05-10T09:08:49;8.77;;;4.93;;
6564;SDS011;3316;44.118;27.258;2023-05-10T09:11:16;6.20;;;4.83;;
6564;SDS011;3316;44.118;27.258;2023-05-10T09:13:42;6.13;;;4.30;;
6564;SDS011;3316;44.118;27.258;2023-05-10T09:16:08;8.23;;;4.15;;
6564;SDS011;3316;44.118;27.258;2023-05-10T09:18:35;6.95;;;4.20;;
6564;SDS011;3316;44.118;27.258;2023-05-10T09:21:01;6.30;;;4.15;;
6564;SDS011;3316;44.118;27.258;2023-05-10T09:23:26;7.45;;;3.65;;
6564;SDS011;3316;44.118;27.258;2023-05-10T09:26:04;6.53;;;3.37;;
6564;SDS011;3316;44.118;27.258;2023-05-10T09:28:33;4.63;;;3.37;;
6564;SDS011;3316;44.118;27.258;2023-05-10T09:30:59;4.78;;;3.25;;
6564;SDS011;3316;44.118;27.258;2023-05-10T09:33:25;4.93;;;3.50;;
6564;SDS011;3316;44.118;27.258;2023-05-10T09:35:51;5.57;;;3.57;;
6564;SDS011;3316;44.118;27.258;2023-05-10T09:38:17;6.67;;;3.97;;
6564;SDS011;3316;44.118;27.258;2023-05-10T09:40:42;6.15;;;4.10;;
6564;SDS011;3316;44.118;27.258;2023-05-10T09:43:19;5.93;;;3.73;;
6564;SDS011;3316;44.118;27.258;2023-05-10T09:45:45;4.23;;;3.10;;
6564;SDS011;3316;44.118;27.258;2023-05-10T09:48:14;4.38;;;2.95;;
6564;SDS011;3316;44.118;27.258;2023-05-10T09:50:40;11.48;;;4.80;;
6564;SDS011;3316;44.118;27.258;2023-05-10T09:53:06;5.63;;;3.10;;
6564;SDS011;3316;44.118;27.258;2023-05-10T09:55:39;8.00;;;3.45;;
6564;SDS011;3316;44.118;27.258;2023-05-10T09:58:06;3.42;;;2.53;;
6564;SDS011;3316;44.118;27.258;2023-05-10T10:00:38;4.70;;;2.67;;
6564;SDS011;3316;44.118;27.258;2023-05-10T10:03:05;10.02;;;4.05;;
6564;SDS011;3316;44.118;27.258;2023-05-10T10:05:36;3.30;;;2.85;;
6564;SDS011;3316;44.118;27.258;2023-05-10T10:08:02;3.97;;;3.00;;
6564;SDS011;3316;44.118;27.258;2023-05-10T10:10:29;3.85;;;3.33;;
6564;SDS011;3316;44.118;27.258;2023-05-10T10:12:56;6.15;;;2.92;;
6564;SDS011;3316;44.118;27.258;2023-05-10T10:15:22;4.25;;;2.35;;
6564;SDS011;3316;44.118;27.258;2023-05-10T10:17:48;5.13;;;3.10;;
6564;SDS011;3316;44.118;27.258;2023-05-10T10:20:15;5.28;;;3.15;;
6564;SDS011;3316;44.118;27.258;2023-05-10T10:22:41;6.72;;;3.10;;
6564;SDS011;3316;44.118;27.258;2023-05-10T10:25:09;3.67;;;2.67;;
6564;SDS011;3316;44.118;27.258;2023-05-10T10:27:39;4.73;;;3.27;;
6564;SDS011;3316;44.118;27.258;2023-05-10T10:35:29;4.05;;;3.03;;
6564;SDS011;3316;44.118;27.258;2023-05-10T10:37:55;8.13;;;3.03;;
6564;SDS011;3316;44.118;27.258;2023-05-10T10:42:54;3.08;;;2.75;;
6564;SDS011;3316;44.118;27.258;2023-05-10T10:45:21;4.20;;;3.23;;
6564;SDS011;3316;44.118;27.258;2023-05-10T10:47:47;11.20;;;2.80;;
6564;SDS011;3316;44.118;27.258;2023-05-10T10:50:13;4.23;;;2.80;;
6564;SDS011;3316;44.118;27.258;2023-05-10T10:52:39;4.38;;;3.20;;
6564;SDS011;3316;44.118;27.258;2023-05-10T10:57:43;5.23;;;2.80;;
6564;SDS011;3316;44.118;27.258;2023-05-10T11:02:52;6.45;;;2.70;;
6564;SDS011;3316;44.118;27.258;2023-05-10T11:07:56;3.65;;;2.60;;
6564;SDS011;3316;44.118;27.258;2023-05-10T11:10:23;5.03;;;2.92;;
6564;SDS011;3316;44.118;27.258;2023-05-10T11:12:55;3.20;;;2.45;;
6564;SDS011;3316;44.118;27.258;2023-05-10T11:15:29;6.20;;;3.10;;
6564;SDS011;3316;44.118;27.258;2023-05-10T11:17:55;4.53;;;3.07;;
6564;SDS011;3316;44.118;27.258;2023-05-10T11:20:21;3.23;;;2.70;;
6564;SDS011;3316;44.118;27.258;2023-05-10T11:22:52;4.60;;;3.55;;
6564;SDS011;3316;44.118;27.258;2023-05-10T11:25:19;4.83;;;3.37;;
6564;SDS011;3316;44.118;27.258;2023-05-10T11:27:46;6.17;;;3.13;;
6564;SDS011;3316;44.118;27.258;2023-05-10T11:30:13;5.32;;;3.03;;
6564;SDS011;3316;44.118;27.258;2023-05-10T11:32:39;3.60;;;2.67;;
6564;SDS011;3316;44.118;27.258;2023-05-10T11:35:11;5.05;;;2.47;;
6564;SDS011;3316;44.118;27.258;2023-05-10T11:37:37;4.75;;;3.15;;
6564;SDS011;3316;44.118;27.258;2023-05-10T11:40:07;2.93;;;2.70;;
6564;SDS011;3316;44.118;27.258;2023-05-10T11:42:36;6.05;;;2.70;;
6564;SDS011;3316;44.118;27.258;2023-05-10T11:45:02;3.80;;;2.80;;
6564;SDS011;3316;44.118;27.258;2023-05-10T11:47:28;3.15;;;2.70;;
6564;SDS011;3316;44.118;27.258;2023-05-10T11:49:53;3.60;;;2.90;;
6564;SDS011;3316;44.118;27.258;2023-05-10T11:52:19;7.13;;;2.65;;
6564;SDS011;3316;44.118;27.258;2023-05-10T11:54:51;8.33;;;3.27;;
6564;SDS011;3316;44.118;27.258;2023-05-10T11:57:18;3.97;;;2.87;;
6564;SDS011;3316;44.118;27.258;2023-05-10T11:59:45;2.70;;;2.50;;
6564;SDS011;3316;44.118;27.258;2023-05-10T12:02:11;11.77;;;3.10;;
6564;SDS011;3316;44.118;27.258;2023-05-10T12:04:40;8.57;;;3.07;;
6564;SDS011;3316;44.118;27.258;2023-05-10T12:07:06;4.37;;;3.30;;
6564;SDS011;3316;44.118;27.258;2023-05-10T12:09:32;4.57;;;3.30;;
6564;SDS011;3316;44.118;27.258;2023-05-10T12:11:57;5.90;;;3.13;;
6564;SDS011;3316;44.118;27.258;2023-05-10T12:14:23;5.03;;;3.53;;
6564;SDS011;3316;44.118;27.258;2023-05-10T12:16:49;4.17;;;3.57;;
6564;SDS011;3316;44.118;27.258;2023-05-10T12:19:18;4.33;;;3.57;;
6564;SDS011;3316;44.118;27.258;2023-05-10T12:21:45;4.33;;;3.50;;
6564;SDS011;3316;44.118;27.258;2023-05-10T12:24:10;4.17;;;3.70;;
6564;SDS011;3316;44.118;27.258;2023-05-10T12:26:36;5.53;;;3.53;;
6564;SDS011;3316;44.118;27.258;2023-05-10T12:29:14;5.40;;;3.80;;
6564;SDS011;3316;44.118;27.258;2023-05-10T12:31:58;9.27;;;3.53;;
6564;SDS011;3316;44.118;27.258;2023-05-10T12:34:31;5.63;;;3.37;;
6564;SDS011;3316;44.118;27.258;2023-05-10T12:36:59;8.60;;;3.90;;
6564;SDS011;3316;44.118;27.258;2023-05-10T12:39:25;6.07;;;3.90;;
6564;SDS011;3316;44.118;27.258;2023-05-10T12:41:51;5.30;;;3.60;;
6564;SDS011;3316;44.118;27.258;2023-05-10T12:44:17;9.43;;;4.10;;
6564;SDS011;3316;44.118;27.258;2023-05-10T12:46:42;4.40;;;3.40;;
6564;SDS011;3316;44.118;27.258;2023-05-10T12:49:08;6.20;;;3.53;;
6564;SDS011;3316;44.118;27.258;2023-05-10T12:51:33;4.60;;;3.57;;
6564;SDS011;3316;44.118;27.258;2023-05-10T12:53:59;7.33;;;3.30;;
6564;SDS011;3316;44.118;27.258;2023-05-10T12:56:24;5.17;;;3.83;;
6564;SDS011;3316;44.118;27.258;2023-05-10T12:58:50;6.00;;;3.33;;
6564;SDS011;3316;44.118;27.258;2023-05-10T13:01:15;3.97;;;3.47;;
6564;SDS011;3316;44.118;27.258;2023-05-10T13:03:41;4.67;;;3.07;;
6564;SDS011;3316;44.118;27.258;2023-05-10T13:06:08;7.87;;;3.53;;
6564;SDS011;3316;44.118;27.258;2023-05-10T13:08:33;5.40;;;3.03;;
6564;SDS011;3316;44.118;27.258;2023-05-10T13:10:59;7.60;;;3.30;;
6564;SDS011;3316;44.118;27.258;2023-05-10T13:13:25;7.17;;;3.03;;
6564;SDS011;3316;44.118;27.258;2023-05-10T13:15:51;6.77;;;2.90;;
6564;SDS011;3316;44.118;27.258;2023-05-10T13:18:17;3.37;;;2.73;;
6564;SDS011;3316;44.118;27.258;2023-05-10T13:20:42;3.47;;;2.70;;
6564;SDS011;3316;44.118;27.258;2023-05-10T13:23:09;6.83;;;3.63;;
6564;SDS011;3316;44.118;27.258;2023-05-10T13:25:35;6.27;;;3.30;;
6564;SDS011;3316;44.118;27.258;2023-05-10T13:28:00;6.77;;;2.97;;
6564;SDS011;3316;44.118;27.258;2023-05-10T13:30:26;3.80;;;2.90;;
6564;SDS011;3316;44.118;27.258;2023-05-10T13:32:52;5.40;;;2.70;;
6564;SDS011;3316;44.118;27.258;2023-05-10T13:35:17;5.67;;;3.40;;
6564;SDS011;3316;44.118;27.258;2023-05-10T13:37:42;3.87;;;3.00;;
6564;SDS011;3316;44.118;27.258;2023-05-10T13:40:08;5.43;;;3.20;;
6564;SDS011;3316;44.118;27.258;2023-05-10T13:42:34;2.90;;;2.60;;
6564;SDS011;3316;44.118;27.258;2023-05-10T13:44:59;6.30;;;3.40;;
6564;SDS011;3316;44.118;27.258;2023-05-10T13:47:26;5.07;;;3.43;;
6564;SDS011;3316;44.118;27.258;2023-05-10T13:49:52;3.30;;;2.87;;
6564;SDS011;3316;44.118;27.258;2023-05-10T13:52:18;3.07;;;2.77;;
6564;SDS011;3316;44.118;27.258;2023-05-10T13:54:44;6.10;;;2.90;;
6564;SDS011;3316;44.118;27.258;2023-05-10T13:57:09;4.77;;;2.63;;
6564;SDS011;3316;44.118;27.258;2023-05-10T13:59:37;5.77;;;3.03;;
6564;SDS011;3316;44.118;27.258;2023-05-10T14:02:03;4.43;;;3.53;;
6564;SDS011;3316;44.118;27.258;2023-05-10T14:04:28;5.70;;;3.03;;
6564;SDS011;3316;44.118;27.258;2023-05-10T14:06:54;5.23;;;2.80;;
6564;SDS011;3316;44.118;27.258;2023-05-10T14:09:20;6.97;;;2.92;;
6564;SDS011;3316;44.118;27.258;2023-05-10T14:11:45;10.02;;;3.10;;
6564;SDS011;3316;44.118;27.258;2023-05-10T14:14:11;5.37;;;3.33;;
6564;SDS011;3316;44.118;27.258;2023-05-10T14:16:41;3.57;;;2.57;;
6564;SDS011;3316;44.118;27.258;2023-05-10T14:19:08;7.30;;;3.43;;
6564;SDS011;3316;44.118;27.258;2023-05-10T14:21:33;4.37;;;3.03;;
6564;SDS011;3316;44.118;27.258;2023-05-10T14:23:58;6.27;;;2.97;;
6564;SDS011;3316;44.118;27.258;2023-05-10T14:26:24;3.97;;;2.90;;
6564;SDS011;3316;44.118;27.258;2023-05-10T14:28:49;4.87;;;3.30;;
6564;SDS011;3316;44.118;27.258;2023-05-10T14:31:15;4.57;;;2.80;;
6564;SDS011;3316;44.118;27.258;2023-05-10T14:33:41;7.47;;;3.33;;
6564;SDS011;3316;44.118;27.258;2023-05-10T14:36:07;6.53;;;3.37;;
6564;SDS011;3316;44.118;27.258;2023-05-10T14:38:33;5.17;;;2.83;;
6564;SDS011;3316;44.118;27.258;2023-05-10T14:40:59;6.57;;;3.87;;
6564;SDS011;3316;44.118;27.258;2023-05-10T14:43:24;3.07;;;2.77;;
6564;SDS011;3316;44.118;27.258;2023-05-10T14:45:50;4.77;;;3.10;;
6564;SDS011;3316;44.118;27.258;2023-05-10T14:48:15;3.77;;;3.23;;
6564;SDS011;3316;44.118;27.258;2023-05-10T14:50:42;4.10;;;3.00;;
6564;SDS011;3316;44.118;27.258;2023-05-10T14:53:08;4.43;;;3.13;;
6564;SDS011;3316;44.118;27.258;2023-05-10T14:55:34;5.77;;;3.53;;
6564;SDS011;3316;44.118;27.258;2023-05-10T14:58:00;4.47;;;3.10;;
6564;SDS011;3316;44.118;27.258;2023-05-10T15:00:27;5.47;;;3.50;;
6564;SDS011;3316;44.118;27.258;2023-05-10T15:02:54;5.93;;;3.37;;
6564;SDS011;3316;44.118;27.258;2023-05-10T15:05:19;7.23;;;4.23;;
6564;SDS011;3316;44.118;27.258;2023-05-10T15:07:44;5.20;;;3.50;;
6564;SDS011;3316;44.118;27.258;2023-05-10T15:10:10;7.50;;;3.87;;
6564;SDS011;3316;44.118;27.258;2023-05-10T15:12:36;6.60;;;4.23;;
6564;SDS011;3316;44.118;27.258;2023-05-10T15:15:02;4.00;;;2.97;;
6564;SDS011;3316;44.118;27.258;2023-05-10T15:17:28;4.43;;;3.73;;
6564;SDS011;3316;44.118;27.258;2023-05-10T15:19:53;6.00;;;3.77;;
6564;SDS011;3316;44.118;27.258;2023-05-10T15:22:18;4.47;;;3.40;;